sensor_id;sensor_type;location;lat;lon;timestamp;pressure;altitude;pressure_sealevel;temperature;humidity
17607;BME280;69222;52.242;20.980;2023-04-22T00:00:13;100284.78;;;12.77;43.75
17607;BME280;69222;52.242;20.980;2023-04-22T00:02:42;100282.28;;;12.74;43.85
17607;BME280;69222;52.242;20.980;2023-04-22T00:05:11;100278.81;;;12.75;43.83
17607;BME280;69222;52.242;20.980;2023-04-22T00:07:43;100278.91;;;12.71;44.04
17607;BME280;69222;52.242;20.980;2023-04-22T00:10:13;100283.31;;;12.63;44.30
17607;BME280;69222;52.242;20.980;2023-04-22T00:12:41;100280.00;;;12.56;44.38
17607;BME280;69222;52.242;20.980;2023-04-22T00:15:09;100271.44;;;12.52;44.67
17607;BME280;69222;52.242;20.980;2023-04-22T00:17:37;100266.31;;;12.49;44.58
17607;BME280;69222;52.242;20.980;2023-04-22T00:20:06;100276.75;;;12.43;44.55
17607;BME280;69222;52.242;20.980;2023-04-22T00:22:36;100269.88;;;12.41;44.68
17607;BME280;69222;52.242;20.980;2023-04-22T00:25:05;100271.56;;;12.43;44.72
17607;BME280;69222;52.242;20.980;2023-04-22T00:27:34;100269.88;;;12.42;44.81
17607;BME280;69222;52.242;20.980;2023-04-22T00:30:03;100272.47;;;12.41;44.63
17607;BME280;69222;52.242;20.980;2023-04-22T00:32:31;100270.75;;;12.40;44.92
17607;BME280;69222;52.242;20.980;2023-04-22T00:34:59;100273.38;;;12.38;44.84
17607;BME280;69222;52.242;20.980;2023-04-22T00:37:27;100268.28;;;12.33;44.99
17607;BME280;69222;52.242;20.980;2023-04-22T00:39:55;100268.38;;;12.26;45.09
17607;BME280;69222;52.242;20.980;2023-04-22T00:42:24;100262.44;;;12.21;45.22
17607;BME280;69222;52.242;20.980;2023-04-22T00:44:54;100266.00;;;12.14;45.42
17607;BME280;69222;52.242;20.980;2023-04-22T00:47:22;100269.47;;;12.11;45.67
17607;BME280;69222;52.242;20.980;2023-04-22T00:49:53;100266.06;;;12.09;45.57
17607;BME280;69222;52.242;20.980;2023-04-22T00:52:21;100265.22;;;12.08;45.59
17607;BME280;69222;52.242;20.980;2023-04-22T00:54:48;100271.31;;;12.03;45.95
17607;BME280;69222;52.242;20.980;2023-04-22T00:57:18;100273.06;;;11.99;45.99
17607;BME280;69222;52.242;20.980;2023-04-22T00:59:46;100262.78;;;11.96;46.43
17607;BME280;69222;52.242;20.980;2023-04-22T01:02:16;100261.13;;;11.94;46.27
17607;BME280;69222;52.242;20.980;2023-04-22T01:04:45;100258.56;;;11.89;46.56
17607;BME280;69222;52.242;20.980;2023-04-22T01:07:13;100261.22;;;11.83;46.56
17607;BME280;69222;52.242;20.980;2023-04-22T01:09:41;100255.25;;;11.78;46.95
17607;BME280;69222;52.242;20.980;2023-04-22T01:12:10;100251.88;;;11.73;47.15
17607;BME280;69222;52.242;20.980;2023-04-22T01:14:38;100259.63;;;11.73;46.95
17607;BME280;69222;52.242;20.980;2023-04-22T01:17:06;100252.81;;;11.69;47.22
17607;BME280;69222;52.242;20.980;2023-04-22T01:19:37;100257.16;;;11.65;47.12
17607;BME280;69222;52.242;20.980;2023-04-22T01:22:06;100255.47;;;11.59;47.59
17607;BME280;69222;52.242;20.980;2023-04-22T01:24:36;100259.81;;;11.56;47.51
17607;BME280;69222;52.242;20.980;2023-04-22T01:27:04;100253.78;;;11.58;47.87
17607;BME280;69222;52.242;20.980;2023-04-22T01:29:32;100263.19;;;11.63;47.46
17607;BME280;69222;52.242;20.980;2023-04-22T01:32:00;100256.28;;;11.63;47.16
17607;BME280;69222;52.242;20.980;2023-04-22T01:34:29;100262.34;;;11.64;47.66
17607;BME280;69222;52.242;20.980;2023-04-22T01:36:57;100261.47;;;11.63;47.39
17607;BME280;69222;52.242;20.980;2023-04-22T01:39:25;100265.81;;;11.61;47.66
17607;BME280;69222;52.242;20.980;2023-04-22T01:41:54;100269.22;;;11.61;47.21
17607;BME280;69222;52.242;20.980;2023-04-22T01:44:24;100264.94;;;11.59;47.35
17607;BME280;69222;52.242;20.980;2023-04-22T01:46:52;100264.19;;;11.51;47.91
17607;BME280;69222;52.242;20.980;2023-04-22T01:49:20;100260.81;;;11.47;47.31
17607;BME280;69222;52.242;20.980;2023-04-22T01:51:48;100263.44;;;11.43;47.46
17607;BME280;69222;52.242;20.980;2023-04-22T01:54:16;100262.59;;;11.41;47.64
17607;BME280;69222;52.242;20.980;2023-04-22T01:56:49;100257.44;;;11.42;47.90
17607;BME280;69222;52.242;20.980;2023-04-22T01:59:19;100259.09;;;11.45;47.61
17607;BME280;69222;52.242;20.980;2023-04-22T02:01:47;100255.69;;;11.41;48.03
17607;BME280;69222;52.242;20.980;2023-04-22T02:04:15;100249.72;;;11.37;48.28
17607;BME280;69222;52.242;20.980;2023-04-22T02:06:43;100254.94;;;11.34;47.73
17607;BME280;69222;52.242;20.980;2023-04-22T02:09:11;100252.38;;;11.30;48.39
17607;BME280;69222;52.242;20.980;2023-04-22T02:11:39;100258.44;;;11.30;48.39
17607;BME280;69222;52.242;20.980;2023-04-22T02:14:07;100249.81;;;11.30;48.32
17607;BME280;69222;52.242;20.980;2023-04-22T02:16:36;100252.44;;;11.27;48.14
17607;BME280;69222;52.242;20.980;2023-04-22T02:19:04;100249.94;;;11.21;48.22
17607;BME280;69222;52.242;20.980;2023-04-22T02:21:32;100250.88;;;11.13;48.60
17607;BME280;69222;52.242;20.980;2023-04-22T02:24:00;100250.03;;;11.10;48.68
17607;BME280;69222;52.242;20.980;2023-04-22T02:26:28;100245.78;;;11.06;49.06
17607;BME280;69222;52.242;20.980;2023-04-22T02:28:56;100247.50;;;11.05;48.95
17607;BME280;69222;52.242;20.980;2023-04-22T02:31:24;100247.50;;;11.08;48.65
17607;BME280;69222;52.242;20.980;2023-04-22T02:33:54;100241.44;;;11.09;49.52
17607;BME280;69222;52.242;20.980;2023-04-22T02:36:21;100246.59;;;11.11;49.58
17607;BME280;69222;52.242;20.980;2023-04-22T02:38:49;100242.34;;;11.08;49.27
17607;BME280;69222;52.242;20.980;2023-04-22T02:41:17;100240.59;;;11.07;49.36
17607;BME280;69222;52.242;20.980;2023-04-22T02:43:45;100243.25;;;11.01;49.27
17607;BME280;69222;52.242;20.980;2023-04-22T02:46:13;100234.72;;;10.93;49.42
17607;BME280;69222;52.242;20.980;2023-04-22T02:48:42;100243.38;;;10.87;49.48
17607;BME280;69222;52.242;20.980;2023-04-22T02:51:12;100243.47;;;10.78;50.17
17607;BME280;69222;52.242;20.980;2023-04-22T02:53:40;100238.38;;;10.75;49.57
17607;BME280;69222;52.242;20.980;2023-04-22T02:56:08;100240.94;;;10.74;49.76
17607;BME280;69222;52.242;20.980;2023-04-22T02:58:36;100234.97;;;10.72;49.32
17607;BME280;69222;52.242;20.980;2023-04-22T03:01:04;100242.72;;;10.67;50.16
17607;BME280;69222;52.242;20.980;2023-04-22T03:03:32;100233.28;;;10.63;50.02
17607;BME280;69222;52.242;20.980;2023-04-22T03:06:01;100241.94;;;10.60;50.09
17607;BME280;69222;52.242;20.980;2023-04-22T03:08:30;100242.78;;;10.59;50.73
17607;BME280;69222;52.242;20.980;2023-04-22T03:10:58;100239.41;;;10.54;50.31
17607;BME280;69222;52.242;20.980;2023-04-22T03:13:26;100244.59;;;10.48;51.11
17607;BME280;69222;52.242;20.980;2023-04-22T03:15:54;100243.78;;;10.42;50.43
17607;BME280;69222;52.242;20.980;2023-04-22T03:18:22;100246.38;;;10.37;51.09
17607;BME280;69222;52.242;20.980;2023-04-22T03:20:50;100243.84;;;10.35;51.56
17607;BME280;69222;52.242;20.980;2023-04-22T03:23:18;100246.41;;;10.34;51.14
17607;BME280;69222;52.242;20.980;2023-04-22T03:25:47;100242.13;;;10.33;51.36
17607;BME280;69222;52.242;20.980;2023-04-22T03:28:15;100254.16;;;10.31;52.06
17607;BME280;69222;52.242;20.980;2023-04-22T03:30:43;100257.63;;;10.31;51.72
17607;BME280;69222;52.242;20.980;2023-04-22T03:33:11;100255.03;;;10.30;51.67
17607;BME280;69222;52.242;20.980;2023-04-22T03:35:38;100256.72;;;10.31;51.73
17607;BME280;69222;52.242;20.980;2023-04-22T03:38:06;100259.31;;;10.31;51.92
17607;BME280;69222;52.242;20.980;2023-04-22T03:40:34;100254.06;;;10.42;51.74
17607;BME280;69222;52.242;20.980;2023-04-22T03:43:04;100263.50;;;10.47;51.87
17607;BME280;69222;52.242;20.980;2023-04-22T03:45:32;100259.19;;;10.51;51.37
17607;BME280;69222;52.242;20.980;2023-04-22T03:48:00;100259.16;;;10.54;52.07
17607;BME280;69222;52.242;20.980;2023-04-22T03:50:28;100263.41;;;10.56;51.41
17607;BME280;69222;52.242;20.980;2023-04-22T03:52:56;100258.22;;;10.59;51.34
17607;BME280;69222;52.242;20.980;2023-04-22T03:55:24;100266.75;;;10.68;51.62
17607;BME280;69222;52.242;20.980;2023-04-22T03:57:51;100265.06;;;10.63;50.81
17607;BME280;69222;52.242;20.980;2023-04-22T04:00:21;100265.06;;;10.68;51.87
17607;BME280;69222;52.242;20.980;2023-04-22T04:02:48;100271.84;;;10.77;50.92
17607;BME280;69222;52.242;20.980;2023-04-22T04:05:17;100269.16;;;10.86;51.76
17607;BME280;69222;52.242;20.980;2023-04-22T04:07:45;100267.38;;;10.97;51.05
17607;BME280;69222;52.242;20.980;2023-04-22T04:10:13;100274.16;;;11.04;50.83
17607;BME280;69222;52.242;20.980;2023-04-22T04:12:41;100269.72;;;11.16;50.48
17607;BME280;69222;52.242;20.980;2023-04-22T04:15:09;100279.06;;;11.29;50.91
17607;BME280;69222;52.242;20.980;2023-04-22T04:17:38;100275.53;;;11.37;50.23
17607;BME280;69222;52.242;20.980;2023-04-22T04:20:07;100272.81;;;11.48;50.20
17607;BME280;69222;52.242;20.980;2023-04-22T04:22:35;100272.69;;;11.59;49.98
17607;BME280;69222;52.242;20.980;2023-04-22T04:25:04;100269.09;;;11.71;49.71
17607;BME280;69222;52.242;20.980;2023-04-22T04:27:32;100275.88;;;11.84;49.78
17607;BME280;69222;52.242;20.980;2023-04-22T04:30:00;100285.97;;;11.99;49.20
17607;BME280;69222;52.242;20.980;2023-04-22T04:32:29;100286.66;;;12.14;48.96
17607;BME280;69222;52.242;20.980;2023-04-22T04:35:01;100275.25;;;12.30;48.31
17607;BME280;69222;52.242;20.980;2023-04-22T04:37:29;100277.53;;;12.48;47.97
17607;BME280;69222;52.242;20.980;2023-04-22T04:39:57;100283.28;;;12.66;47.34
17607;BME280;69222;52.242;20.980;2023-04-22T04:42:25;100275.25;;;12.81;46.32
17607;BME280;69222;52.242;20.980;2023-04-22T04:44:53;100290.53;;;12.95;45.98
17607;BME280;69222;52.242;20.980;2023-04-22T04:47:24;100288.53;;;13.12;45.52
17607;BME280;69222;52.242;20.980;2023-04-22T04:49:52;100270.31;;;13.17;44.73
17607;BME280;69222;52.242;20.980;2023-04-22T04:52:21;100285.44;;;13.41;44.79
17607;BME280;69222;52.242;20.980;2023-04-22T04:54:49;100277.25;;;13.61;44.07
17607;BME280;69222;52.242;20.980;2023-04-22T04:57:17;100277.72;;;13.80;43.67
17607;BME280;69222;52.242;20.980;2023-04-22T04:59:45;100278.97;;;14.02;42.76
17607;BME280;69222;52.242;20.980;2023-04-22T05:02:12;100280.22;;;14.25;42.43
17607;BME280;69222;52.242;20.980;2023-04-22T05:04:41;100276.16;;;14.50;42.42
17607;BME280;69222;52.242;20.980;2023-04-22T05:07:09;100279.97;;;14.73;41.82
17607;BME280;69222;52.242;20.980;2023-04-22T05:09:38;100278.59;;;14.92;40.98
17607;BME280;69222;52.242;20.980;2023-04-22T05:12:07;100281.63;;;15.10;40.18
17607;BME280;69222;52.242;20.980;2023-04-22T05:14:35;100276.81;;;15.27;39.52
17607;BME280;69222;52.242;20.980;2023-04-22T05:17:03;100276.19;;;15.50;39.51
17607;BME280;69222;52.242;20.980;2023-04-22T05:19:31;100282.41;;;15.76;38.58
17607;BME280;69222;52.242;20.980;2023-04-22T05:21:58;100279.16;;;15.99;37.96
17607;BME280;69222;52.242;20.980;2023-04-22T05:24:26;100274.94;;;16.23;37.65
17607;BME280;69222;52.242;20.980;2023-04-22T05:26:56;100276.75;;;16.47;37.32
17607;BME280;69222;52.242;20.980;2023-04-22T05:29:24;100277.00;;;16.66;36.96
17607;BME280;69222;52.242;20.980;2023-04-22T05:31:52;100276.72;;;16.75;36.30
17607;BME280;69222;52.242;20.980;2023-04-22T05:34:20;100277.34;;;16.83;36.63
17607;BME280;69222;52.242;20.980;2023-04-22T05:36:47;100281.44;;;16.90;36.23
17607;BME280;69222;52.242;20.980;2023-04-22T05:39:15;100273.50;;;16.94;36.30
17607;BME280;69222;52.242;20.980;2023-04-22T05:41:43;100281.00;;;16.78;36.12
17607;BME280;69222;52.242;20.980;2023-04-22T05:44:13;100280.13;;;16.51;36.58
17607;BME280;69222;52.242;20.980;2023-04-22T05:46:44;100272.41;;;16.19;37.14
17607;BME280;69222;52.242;20.980;2023-04-22T05:49:12;100277.03;;;15.82;37.79
17607;BME280;69222;52.242;20.980;2023-04-22T05:51:41;100277.81;;;15.54;38.89
17607;BME280;69222;52.242;20.980;2023-04-22T05:54:09;100276.34;;;15.44;38.93
17607;BME280;69222;52.242;20.980;2023-04-22T05:56:36;100276.47;;;16.00;38.06
17607;BME280;69222;52.242;20.980;2023-04-22T05:59:04;100257.34;;;17.82;35.89
17607;BME280;69222;52.242;20.980;2023-04-22T06:01:35;100262.34;;;19.55;32.25
17607;BME280;69222;52.242;20.980;2023-04-22T06:04:03;100263.94;;;21.21;30.09
17607;BME280;69222;52.242;20.980;2023-04-22T06:06:32;100254.44;;;23.07;27.39
17607;BME280;69222;52.242;20.980;2023-04-22T06:09:00;100251.06;;;24.98;25.07
17607;BME280;69222;52.242;20.980;2023-04-22T06:11:28;100248.34;;;27.06;22.16
17607;BME280;69222;52.242;20.980;2023-04-22T06:13:56;100242.28;;;29.11;19.77
17607;BME280;69222;52.242;20.980;2023-04-22T06:16:24;100247.63;;;31.08;17.50
17607;BME280;69222;52.242;20.980;2023-04-22T06:18:53;100242.44;;;32.35;16.45
17607;BME280;69222;52.242;20.980;2023-04-22T06:21:21;100239.09;;;32.94;15.60
17607;BME280;69222;52.242;20.980;2023-04-22T06:23:49;100239.38;;;34.02;14.49
17607;BME280;69222;52.242;20.980;2023-04-22T06:26:17;100246.66;;;35.31;13.15
17607;BME280;69222;52.242;20.980;2023-04-22T06:28:45;100244.84;;;36.48;12.08
17607;BME280;69222;52.242;20.980;2023-04-22T06:31:13;100230.06;;;37.05;11.53
17607;BME280;69222;52.242;20.980;2023-04-22T06:33:42;100236.66;;;37.68;11.00
17607;BME280;69222;52.242;20.980;2023-04-22T06:36:12;100237.38;;;38.13;10.75
17607;BME280;69222;52.242;20.980;2023-04-22T06:38:39;100239.34;;;38.75;9.98
17607;BME280;69222;52.242;20.980;2023-04-22T06:41:07;100235.44;;;39.54;9.89
17607;BME280;69222;52.242;20.980;2023-04-22T06:43:35;100240.44;;;40.18;9.94
17607;BME280;69222;52.242;20.980;2023-04-22T06:46:03;100237.31;;;40.35;9.37
17607;BME280;69222;52.242;20.980;2023-04-22T06:48:32;100236.81;;;39.78;9.23
17607;BME280;69222;52.242;20.980;2023-04-22T06:51:00;100239.63;;;39.56;9.78
17607;BME280;69222;52.242;20.980;2023-04-22T06:53:29;100236.91;;;39.50;9.63
17607;BME280;69222;52.242;20.980;2023-04-22T06:55:57;100240.97;;;39.87;9.43
17607;BME280;69222;52.242;20.980;2023-04-22T06:58:25;100237.88;;;40.10;8.71
17607;BME280;69222;52.242;20.980;2023-04-22T07:00:52;100244.56;;;40.21;8.78
17607;BME280;69222;52.242;20.980;2023-04-22T07:03:20;100242.06;;;39.99;9.27
17607;BME280;69222;52.242;20.980;2023-04-22T07:05:49;100235.59;;;40.00;9.18
17607;BME280;69222;52.242;20.980;2023-04-22T07:08:17;100234.78;;;40.00;8.76
17607;BME280;69222;52.242;20.980;2023-04-22T07:10:46;100243.97;;;40.39;8.58
17607;BME280;69222;52.242;20.980;2023-04-22T07:13:14;100236.91;;;40.58;8.33
17607;BME280;69222;52.242;20.980;2023-04-22T07:15:42;100242.84;;;41.19;8.36
17607;BME280;69222;52.242;20.980;2023-04-22T07:18:11;100237.44;;;41.19;8.67
17607;BME280;69222;52.242;20.980;2023-04-22T07:20:39;100236.50;;;40.74;8.31
17607;BME280;69222;52.242;20.980;2023-04-22T07:23:07;100235.03;;;40.51;8.69
17607;BME280;69222;52.242;20.980;2023-04-22T07:25:35;100238.31;;;40.00;9.12
17607;BME280;69222;52.242;20.980;2023-04-22T07:28:04;100236.91;;;40.18;9.01
17607;BME280;69222;52.242;20.980;2023-04-22T07:30:32;100236.69;;;40.99;8.40
17607;BME280;69222;52.242;20.980;2023-04-22T07:33:00;100236.50;;;41.90;7.94
17607;BME280;69222;52.242;20.980;2023-04-22T07:35:28;100231.19;;;43.02;7.54
17607;BME280;69222;52.242;20.980;2023-04-22T07:37:57;100226.69;;;43.93;6.85
17607;BME280;69222;52.242;20.980;2023-04-22T07:40:25;100230.34;;;44.76;6.54
17607;BME280;69222;52.242;20.980;2023-04-22T07:42:53;100226.91;;;45.33;6.44
17607;BME280;69222;52.242;20.980;2023-04-22T07:45:22;100230.81;;;45.48;6.00
17607;BME280;69222;52.242;20.980;2023-04-22T07:47:50;100226.31;;;44.90;6.35
17607;BME280;69222;52.242;20.980;2023-04-22T07:50:18;100224.91;;;44.64;6.60
17607;BME280;69222;52.242;20.980;2023-04-22T07:52:46;100225.03;;;44.69;6.48
17607;BME280;69222;52.242;20.980;2023-04-22T07:55:14;100218.06;;;43.96;6.18
17607;BME280;69222;52.242;20.980;2023-04-22T07:57:42;100224.69;;;42.85;6.80
17607;BME280;69222;52.242;20.980;2023-04-22T08:00:11;100219.63;;;42.45;6.87
17607;BME280;69222;52.242;20.980;2023-04-22T08:02:40;100226.59;;;42.09;7.52
17607;BME280;69222;52.242;20.980;2023-04-22T08:05:09;100222.28;;;42.52;7.13
17607;BME280;69222;52.242;20.980;2023-04-22T08:07:38;100215.63;;;43.16;6.82
17607;BME280;69222;52.242;20.980;2023-04-22T08:10:06;100225.66;;;43.64;6.10
17607;BME280;69222;52.242;20.980;2023-04-22T08:12:35;100223.66;;;44.01;6.10
17607;BME280;69222;52.242;20.980;2023-04-22T08:15:04;100220.50;;;44.63;5.86
17607;BME280;69222;52.242;20.980;2023-04-22T08:17:32;100221.53;;;45.21;5.54
17607;BME280;69222;52.242;20.980;2023-04-22T08:20:02;100218.34;;;45.52;5.09
17607;BME280;69222;52.242;20.980;2023-04-22T08:22:33;100214.34;;;45.72;5.40
17607;BME280;69222;52.242;20.980;2023-04-22T08:25:02;100213.03;;;45.74;5.40
17607;BME280;69222;52.242;20.980;2023-04-22T08:27:30;100216.06;;;45.61;5.34
17607;BME280;69222;52.242;20.980;2023-04-22T08:29:58;100218.94;;;45.43;4.79
17607;BME280;69222;52.242;20.980;2023-04-22T08:32:26;100219.66;;;45.10;5.40
17607;BME280;69222;52.242;20.980;2023-04-22T08:34:54;100213.97;;;44.99;5.52
17607;BME280;69222;52.242;20.980;2023-04-22T08:37:31;100215.44;;;44.90;5.47
17607;BME280;69222;52.242;20.980;2023-04-22T08:39:59;100212.06;;;45.00;5.41
17607;BME280;69222;52.242;20.980;2023-04-22T08:42:27;100214.25;;;44.39;5.71
17607;BME280;69222;52.242;20.980;2023-04-22T08:44:56;100212.81;;;44.48;5.64
17607;BME280;69222;52.242;20.980;2023-04-22T08:47:24;100210.47;;;44.28;5.36
17607;BME280;69222;52.242;20.980;2023-04-22T08:49:54;100213.97;;;44.17;5.48
17607;BME280;69222;52.242;20.980;2023-04-22T08:52:22;100209.78;;;44.56;5.83
17607;BME280;69222;52.242;20.980;2023-04-22T08:54:51;100203.22;;;44.22;5.77
17607;BME280;69222;52.242;20.980;2023-04-22T08:57:19;100200.88;;;44.14;5.89
17607;BME280;69222;52.242;20.980;2023-04-22T08:59:48;100202.56;;;44.50;5.37
17607;BME280;69222;52.242;20.980;2023-04-22T09:02:19;100195.38;;;44.68;5.24
17607;BME280;69222;52.242;20.980;2023-04-22T09:04:49;100205.88;;;44.52;5.47
17607;BME280;69222;52.242;20.980;2023-04-22T09:07:21;100200.06;;;44.37;6.00
17607;BME280;69222;52.242;20.980;2023-04-22T09:09:51;100190.97;;;44.08;5.66
17607;BME280;69222;52.242;20.980;2023-04-22T09:12:19;100193.94;;;43.46;5.70
17607;BME280;69222;52.242;20.980;2023-04-22T09:14:47;100192.75;;;41.62;6.74
17607;BME280;69222;52.242;20.980;2023-04-22T09:17:15;100190.50;;;41.52;7.08
17607;BME280;69222;52.242;20.980;2023-04-22T09:19:44;100196.28;;;41.62;7.06
17607;BME280;69222;52.242;20.980;2023-04-22T09:22:12;100190.94;;;42.37;7.40
17607;BME280;69222;52.242;20.980;2023-04-22T09:24:43;100184.72;;;42.80;6.73
17607;BME280;69222;52.242;20.980;2023-04-22T09:27:17;100194.25;;;40.93;6.86
17607;BME280;69222;52.242;20.980;2023-04-22T09:29:47;100191.22;;;40.29;7.45
17607;BME280;69222;52.242;20.980;2023-04-22T09:32:15;100180.56;;;39.81;7.66
17607;BME280;69222;52.242;20.980;2023-04-22T09:34:49;100179.31;;;39.77;7.76
17607;BME280;69222;52.242;20.980;2023-04-22T09:37:18;100179.94;;;39.18;7.83
17607;BME280;69222;52.242;20.980;2023-04-22T09:39:49;100171.59;;;38.43;8.23
17607;BME280;69222;52.242;20.980;2023-04-22T09:42:20;100170.47;;;37.88;8.72
17607;BME280;69222;52.242;20.980;2023-04-22T09:44:49;100179.72;;;37.43;9.01
17607;BME280;69222;52.242;20.980;2023-04-22T09:47:19;100164.59;;;37.78;9.22
17607;BME280;69222;52.242;20.980;2023-04-22T09:49:47;100167.00;;;38.37;8.83
17607;BME280;69222;52.242;20.980;2023-04-22T09:52:22;100159.81;;;39.75;8.58
17607;BME280;69222;52.242;20.980;2023-04-22T09:54:52;100157.75;;;40.57;7.80
17607;BME280;69222;52.242;20.980;2023-04-22T09:57:22;100156.69;;;39.78;7.50
17607;BME280;69222;52.242;20.980;2023-04-22T09:59:50;100159.69;;;39.35;7.77
17607;BME280;69222;52.242;20.980;2023-04-22T10:02:27;100155.97;;;38.11;7.91
17607;BME280;69222;52.242;20.980;2023-04-22T10:04:55;100153.59;;;37.07;8.83
17607;BME280;69222;52.242;20.980;2023-04-22T10:07:25;100162.97;;;36.96;9.19
17607;BME280;69222;52.242;20.980;2023-04-22T10:09:57;100140.69;;;37.68;9.25
17607;BME280;69222;52.242;20.980;2023-04-22T10:12:27;100149.31;;;38.07;9.14
17607;BME280;69222;52.242;20.980;2023-04-22T10:15:01;100156.66;;;37.91;9.19
17607;BME280;69222;52.242;20.980;2023-04-22T10:17:31;100139.13;;;38.24;9.19
17607;BME280;69222;52.242;20.980;2023-04-22T10:20:02;100138.22;;;38.73;9.07
17607;BME280;69222;52.242;20.980;2023-04-22T10:22:33;100134.81;;;38.57;9.37
17607;BME280;69222;52.242;20.980;2023-04-22T10:25:02;100136.50;;;38.93;8.96
17607;BME280;69222;52.242;20.980;2023-04-22T10:27:31;100141.94;;;39.13;7.97
17607;BME280;69222;52.242;20.980;2023-04-22T10:29:59;100134.03;;;38.70;8.79
17607;BME280;69222;52.242;20.980;2023-04-22T10:32:27;100134.84;;;37.29;9.68
17607;BME280;69222;52.242;20.980;2023-04-22T10:35:10;100131.44;;;35.39;10.48
17607;BME280;69222;52.242;20.980;2023-04-22T10:37:43;100140.09;;;33.89;11.54
17607;BME280;69222;52.242;20.980;2023-04-22T10:40:15;100144.50;;;32.01;12.69
17607;BME280;69222;52.242;20.980;2023-04-22T10:42:49;100147.97;;;31.11;13.49
17607;BME280;69222;52.242;20.980;2023-04-22T10:45:18;100144.72;;;30.32;14.50
17607;BME280;69222;52.242;20.980;2023-04-22T10:47:50;100141.88;;;29.16;15.43
17607;BME280;69222;52.242;20.980;2023-04-22T10:50:21;100145.44;;;28.65;15.67
17607;BME280;69222;52.242;20.980;2023-04-22T10:52:50;100146.88;;;28.16;16.76
17607;BME280;69222;52.242;20.980;2023-04-22T10:55:19;100131.81;;;27.96;16.86
17607;BME280;69222;52.242;20.980;2023-04-22T10:57:50;100128.88;;;27.12;17.34
17607;BME280;69222;52.242;20.980;2023-04-22T11:00:30;100131.72;;;26.86;17.57
17607;BME280;69222;52.242;20.980;2023-04-22T11:03:24;100125.69;;;26.84;17.71
17607;BME280;69222;52.242;20.980;2023-04-22T11:06:11;100129.09;;;26.86;17.35
17607;BME280;69222;52.242;20.980;2023-04-22T11:08:43;100129.91;;;26.87;17.21
17607;BME280;69222;52.242;20.980;2023-04-22T11:11:12;100130.06;;;26.85;17.11
17607;BME280;69222;52.242;20.980;2023-04-22T11:13:41;100122.97;;;26.97;17.26
17607;BME280;69222;52.242;20.980;2023-04-22T11:16:10;100124.91;;;27.17;17.71
17607;BME280;69222;52.242;20.980;2023-04-22T11:18:38;100126.75;;;27.49;17.61
17607;BME280;69222;52.242;20.980;2023-04-22T11:21:06;100115.38;;;27.37;17.99
17607;BME280;69222;52.242;20.980;2023-04-22T11:23:35;100117.19;;;27.26;18.17
17607;BME280;69222;52.242;20.980;2023-04-22T11:26:04;100111.25;;;27.44;18.57
17607;BME280;69222;52.242;20.980;2023-04-22T11:28:32;100108.38;;;27.48;18.32
17607;BME280;69222;52.242;20.980;2023-04-22T11:31:03;100104.91;;;27.36;17.52
17607;BME280;69222;52.242;20.980;2023-04-22T11:33:32;100117.06;;;26.93;17.11
17607;BME280;69222;52.242;20.980;2023-04-22T11:36:01;100106.88;;;26.31;17.98
17607;BME280;69222;52.242;20.980;2023-04-22T11:38:29;100104.81;;;25.64;18.44
17607;BME280;69222;52.242;20.980;2023-04-22T11:40:57;100107.06;;;25.34;19.16
17607;BME280;69222;52.242;20.980;2023-04-22T11:43:25;100101.31;;;25.16;20.55
17607;BME280;69222;52.242;20.980;2023-04-22T11:45:54;100103.50;;;24.96;21.08
17607;BME280;69222;52.242;20.980;2023-04-22T11:48:25;100100.41;;;24.78;20.72
17607;BME280;69222;52.242;20.980;2023-04-22T11:51:06;100101.88;;;24.57;20.60
17607;BME280;69222;52.242;20.980;2023-04-22T11:53:35;100103.34;;;24.48;21.14
17607;BME280;69222;52.242;20.980;2023-04-22T11:56:05;100110.56;;;24.32;21.02
17607;BME280;69222;52.242;20.980;2023-04-22T11:58:37;100105.50;;;24.29;21.07
17607;BME280;69222;52.242;20.980;2023-04-22T12:01:11;100104.69;;;24.28;20.66
17607;BME280;69222;52.242;20.980;2023-04-22T12:03:41;100110.56;;;24.19;21.23
17607;BME280;69222;52.242;20.980;2023-04-22T12:06:09;100097.50;;;24.18;20.69
17607;BME280;69222;52.242;20.980;2023-04-22T12:08:38;100088.13;;;24.14;20.68
17607;BME280;69222;52.242;20.980;2023-04-22T12:11:09;100092.63;;;24.11;21.74
17607;BME280;69222;52.242;20.980;2023-04-22T12:13:41;100091.78;;;23.98;21.09
17607;BME280;69222;52.242;20.980;2023-04-22T12:16:10;100096.91;;;23.87;20.87
17607;BME280;69222;52.242;20.980;2023-04-22T12:18:48;100096.59;;;23.65;21.87
17607;BME280;69222;52.242;20.980;2023-04-22T12:21:17;100091.94;;;23.55;21.00
17607;BME280;69222;52.242;20.980;2023-04-22T12:23:46;100100.97;;;23.51;21.63
17607;BME280;69222;52.242;20.980;2023-04-22T12:26:16;100101.41;;;23.58;21.64
17607;BME280;69222;52.242;20.980;2023-04-22T12:28:45;100095.31;;;23.57;21.43
17607;BME280;69222;52.242;20.980;2023-04-22T12:31:14;100087.00;;;23.63;21.87
17607;BME280;69222;52.242;20.980;2023-04-22T12:33:44;100085.09;;;23.80;21.80
17607;BME280;69222;52.242;20.980;2023-04-22T12:36:12;100082.94;;;23.99;22.18
17607;BME280;69222;52.242;20.980;2023-04-22T12:38:41;100080.97;;;24.16;21.69
17607;BME280;69222;52.242;20.980;2023-04-22T12:41:08;100082.34;;;24.21;20.97
17607;BME280;69222;52.242;20.980;2023-04-22T12:43:36;100077.50;;;24.28;22.28
17607;BME280;69222;52.242;20.980;2023-04-22T12:46:06;100070.03;;;24.34;22.61
17607;BME280;69222;52.242;20.980;2023-04-22T12:48:35;100074.13;;;24.39;22.46
17607;BME280;69222;52.242;20.980;2023-04-22T12:51:05;100060.03;;;24.27;21.72